Time;durP1;ratioP1;P1;durP2;ratioP2;P2;SDS_P1;SDS_P2;PMS_P1;PMS_P2;Temp;Humidity;BMP_temperature;BMP_pressure;BME280_temperature;BME280_humidity;BME280_pressure;Samples;Min_cycle;Max_cycle;Signal;HPM_P1;HPM_P2
2023/12/20 00:02:23;;;;;;;51.88;30.83;;;;;;;;;;6081056;29;20069;-85
2023/12/20 00:05:24;;;;;;;50.28;29.83;;;;;;;;;;6081193;29;20060;-86
2023/12/20 00:08:26;;;;;;;45.10;29.55;;;;;;;;;;6082366;29;20057;-86
2023/12/20 00:11:28;;;;;;;52.85;30.50;;;;;;;;;;6081130;29;20177;-86
2023/12/20 00:14:30;;;;;;;48.60;30.10;;;;;;;;;;6077781;29;20270;-85
2023/12/20 00:17:33;;;;;;;47.58;30.02;;;;;;;;;;6083165;29;20068;-86
2023/12/20 00:20:35;;;;;;;49.70;29.20;;;;;;;;;;6082985;29;20048;-87
2023/12/20 00:23:37;;;;;;;52.55;29.55;;;;;;;;;;6084870;29;20049;-86
2023/12/20 00:26:39;;;;;;;54.45;31.83;;;;;;;;;;6079622;29;20063;-79
2023/12/20 00:29:42;;;;;;;50.53;31.13;;;;;;;;;;6076156;29;20067;-78
2023/12/20 00:32:47;;;;;;;49.53;31.58;;;;;;;;;;6076817;29;20323;-79
2023/12/20 00:35:48;;;;;;;;;;;;;;;;;;6079325;29;20071;-76
2023/12/20 00:38:51;;;;;;;70.70;39.38;;;;;;;;;;6080311;29;19927;-77
2023/12/20 00:41:53;;;;;;;166.38;75.43;;;;;;;;;;6085260;29;20104;-79
2023/12/20 00:44:54;;;;;;;91.47;47.88;;;;;;;;;;6083916;29;20052;-77
2023/12/20 00:47:59;;;;;;;123.78;58.50;;;;;;;;;;6082200;29;20347;-81
2023/12/20 00:51:00;;;;;;;52.50;31.60;;;;;;;;;;6085070;29;20352;-79
2023/12/20 00:54:02;;;;;;;48.97;28.58;;;;;;;;;;6083309;29;20162;-78
2023/12/20 00:57:04;;;;;;;47.00;27.20;;;;;;;;;;6088615;29;20056;-78
2023/12/20 01:00:09;;;;;;;42.05;29.05;;;;;;;;;;6086417;29;20060;-79
2023/12/20 01:03:12;;;;;;;47.70;28.20;;;;;;;;;;6085864;29;20060;-78
2023/12/20 01:06:15;;;;;;;53.03;28.77;;;;;;;;;;6084919;29;20056;-78
2023/12/20 01:09:18;;;;;;;52.25;29.02;;;;;;;;;;6081041;29;20252;-79
2023/12/20 01:12:20;;;;;;;42.95;28.50;;;;;;;;;;6083874;29;20155;-79
2023/12/20 01:15:23;;;;;;;48.05;28.63;;;;;;;;;;6087533;29;20044;-79
2023/12/20 01:18:26;;;;;;;48.70;29.35;;;;;;;;;;6083465;29;20078;-79
2023/12/20 01:21:27;;;;;;;47.78;29.08;;;;;;;;;;6080418;29;20072;-79
2023/12/20 01:24:29;;;;;;;49.58;30.02;;;;;;;;;;6077078;29;20383;-79
2023/12/20 01:27:31;;;;;;;50.78;28.48;;;;;;;;;;6084507;29;20059;-79
2023/12/20 01:30:32;;;;;;;50.15;28.92;;;;;;;;;;6084918;29;20060;-79
2023/12/20 01:33:35;;;;;;;45.72;30.23;;;;;;;;;;6083599;29;20364;-79
2023/12/20 01:36:37;;;;;;;47.28;28.67;;;;;;;;;;6084830;29;20050;-78
2023/12/20 01:39:39;;;;;;;45.63;29.25;;;;;;;;;;6079122;29;20349;-79
2023/12/20 01:42:41;;;;;;;46.83;28.90;;;;;;;;;;6085004;29;20060;-80
2023/12/20 01:45:45;;;;;;;47.80;29.65;;;;;;;;;;6081938;29;20063;-81
2023/12/20 01:48:48;;;;;;;48.72;30.20;;;;;;;;;;6082915;29;20063;-79
2023/12/20 01:51:51;;;;;;;53.25;31.45;;;;;;;;;;6084308;29;20256;-79
2023/12/20 01:54:54;;;;;;;49.85;30.23;;;;;;;;;;6085040;29;20079;-78
2023/12/20 01:57:56;;;;;;;44.30;28.52;;;;;;;;;;6086369;29;20052;-80
2023/12/20 02:00:58;;;;;;;48.40;30.38;;;;;;;;;;6080473;29;20060;-79
2023/12/20 02:04:01;;;;;;;46.35;29.13;;;;;;;;;;6083284;29;20056;-79
2023/12/20 02:07:04;;;;;;;48.67;29.98;;;;;;;;;;6084604;29;20294;-79
2023/12/20 02:10:06;;;;;;;41.90;28.30;;;;;;;;;;6079788;29;20136;-79
2023/12/20 02:13:08;;;;;;;47.13;28.05;;;;;;;;;;6077195;29;20111;-78
2023/12/20 02:16:09;;;;;;;43.00;26.67;;;;;;;;;;6081075;29;20063;-78
2023/12/20 02:19:15;;;;;;;41.13;26.02;;;;;;;;;;6082893;29;20252;-78
2023/12/20 02:22:18;;;;;;;46.88;27.20;;;;;;;;;;6082838;29;20060;-79
2023/12/20 02:25:20;;;;;;;44.70;26.35;;;;;;;;;;6081599;29;20053;-80
2023/12/20 02:28:22;;;;;;;42.20;26.45;;;;;;;;;;6081050;29;20068;-79
2023/12/20 02:31:24;;;;;;;45.97;27.15;;;;;;;;;;6080111;29;20048;-80
2023/12/20 02:34:26;;;;;;;45.90;26.05;;;;;;;;;;6085287;29;20120;-79
2023/12/20 02:37:29;;;;;;;41.15;26.95;;;;;;;;;;6088258;29;20344;-80
2023/12/20 02:40:31;;;;;;;39.55;24.05;;;;;;;;;;6084700;29;20115;-80
2023/12/20 02:43:32;;;;;;;45.83;25.85;;;;;;;;;;6080555;29;20501;-79
2023/12/20 02:46:34;;;;;;;42.90;25.35;;;;;;;;;;6083926;29;20059;-79
2023/12/20 02:49:36;;;;;;;39.83;25.35;;;;;;;;;;6081861;29;20470;-79
2023/12/20 02:52:39;;;;;;;42.47;24.95;;;;;;;;;;6082453;29;20390;-79
2023/12/20 02:55:41;;;;;;;44.83;24.00;;;;;;;;;;6083701;29;20057;-76
2023/12/20 02:58:43;;;;;;;38.78;24.38;;;;;;;;;;6080018;29;20056;-85
2023/12/20 03:01:46;;;;;;;39.80;24.25;;;;;;;;;;6080985;29;20051;-86
2023/12/20 03:04:47;;;;;;;41.38;24.58;;;;;;;;;;6080944;29;20289;-86
2023/12/20 03:07:50;;;;;;;37.33;21.80;;;;;;;;;;6084191;29;20052;-80
2023/12/20 03:10:53;;;;;;;40.17;22.98;;;;;;;;;;6077741;29;20049;-79
2023/12/20 03:13:54;;;;;;;41.33;23.77;;;;;;;;;;6078940;29;20398;-80
2023/12/20 03:16:56;;;;;;;40.72;23.77;;;;;;;;;;6078869;29;20083;-78
2023/12/20 03:19:58;;;;;;;38.35;22.27;;;;;;;;;;6086538;29;20052;-78
2023/12/20 03:23:01;;;;;;;45.05;22.83;;;;;;;;;;6078128;29;20063;-78
2023/12/20 03:26:03;;;;;;;40.78;23.40;;;;;;;;;;6084759;29;20060;-78
2023/12/20 03:29:04;;;;;;;35.08;22.90;;;;;;;;;;6081150;29;20372;-80
2023/12/20 03:32:08;;;;;;;35.47;23.40;;;;;;;;;;6086922;29;20253;-79
2023/12/20 03:35:10;;;;;;;39.67;22.05;;;;;;;;;;6080767;29;20048;-79
2023/12/20 03:38:13;;;;;;;37.55;22.70;;;;;;;;;;6083599;29;20071;-79
2023/12/20 03:41:15;;;;;;;45.77;23.13;;;;;;;;;;6079116;29;20105;-79
2023/12/20 03:44:17;;;;;;;33.80;21.98;;;;;;;;;;6078953;29;20068;-79
2023/12/20 03:47:19;;;;;;;36.33;22.05;;;;;;;;;;6080549;29;20056;-78
2023/12/20 03:50:20;;;;;;;37.45;21.90;;;;;;;;;;6077269;29;20595;-78
2023/12/20 03:53:23;;;;;;;34.08;22.25;;;;;;;;;;6077919;29;20067;-80
2023/12/20 03:56:25;;;;;;;37.13;22.35;;;;;;;;;;6082376;29;20055;-78
2023/12/20 03:59:27;;;;;;;36.95;21.23;;;;;;;;;;6080159;29;20057;-79
2023/12/20 04:02:28;;;;;;;35.78;22.35;;;;;;;;;;6083071;29;20104;-78
2023/12/20 04:05:30;;;;;;;37.03;21.73;;;;;;;;;;6081442;29;20072;-79
2023/12/20 04:08:33;;;;;;;35.25;22.20;;;;;;;;;;6081640;29;20053;-87
2023/12/20 04:11:35;;;;;;;40.53;23.35;;;;;;;;;;6084495;29;20057;-85
2023/12/20 04:14:37;;;;;;;39.70;22.35;;;;;;;;;;6082555;29;20366;-86
2023/12/20 04:17:39;;;;;;;38.88;21.90;;;;;;;;;;6085728;29;20056;-86
2023/12/20 04:20:40;;;;;;;39.30;22.98;;;;;;;;;;6087156;29;20064;-85
2023/12/20 04:23:43;;;;;;;43.78;23.58;;;;;;;;;;6088941;29;20348;-86
2023/12/20 04:26:45;;;;;;;37.03;22.38;;;;;;;;;;6094786;29;20055;-87
2023/12/20 04:29:47;;;;;;;42.72;23.95;;;;;;;;;;6086630;29;20252;-86
2023/12/20 04:32:49;;;;;;;41.85;23.60;;;;;;;;;;6088321;29;20056;-88
2023/12/20 04:35:51;;;;;;;37.85;23.45;;;;;;;;;;6091465;29;20340;-86
2023/12/20 04:38:54;;;;;;;42.60;24.23;;;;;;;;;;6083864;29;20056;-85
2023/12/20 04:41:56;;;;;;;42.92;23.55;;;;;;;;;;6083803;29;20065;-85
2023/12/20 04:44:57;;;;;;;41.55;25.10;;;;;;;;;;6086339;29;20059;-86
2023/12/20 04:47:59;;;;;;;44.33;26.80;;;;;;;;;;6089210;29;20268;-85
2023/12/20 04:51:01;;;;;;;43.60;28.33;;;;;;;;;;6089228;29;20055;-86
2023/12/20 04:54:04;;;;;;;48.20;29.25;;;;;;;;;;6089171;29;20259;-86
2023/12/20 04:57:06;;;;;;;46.55;29.52;;;;;;;;;;6085819;29;20056;-87
2023/12/20 05:00:09;;;;;;;49.40;29.25;;;;;;;;;;6087955;29;20065;-87
2023/12/20 05:03:11;;;;;;;47.08;28.85;;;;;;;;;;6087463;29;20293;-86
2023/12/20 05:06:12;;;;;;;49.70;29.33;;;;;;;;;;6090667;29;20052;-86
2023/12/20 05:09:15;;;;;;;46.25;28.20;;;;;;;;;;6086951;29;20256;-86
2023/12/20 05:12:17;;;;;;;44.25;27.70;;;;;;;;;;6084463;29;20063;-86
2023/12/20 05:15:19;;;;;;;47.88;28.73;;;;;;;;;;6086904;29;20055;-87
2023/12/20 05:18:21;;;;;;;50.17;29.40;;;;;;;;;;6085996;29;20289;-86
2023/12/20 05:21:24;;;;;;;42.97;27.20;;;;;;;;;;6084568;29;20044;-87
2023/12/20 05:24:27;;;;;;;50.42;29.60;;;;;;;;;;6090896;29;20057;-85
2023/12/20 05:27:29;;;;;;;43.08;27.38;;;;;;;;;;6083872;29;20114;-87
2023/12/20 05:30:31;;;;;;;43.92;29.08;;;;;;;;;;6082247;29;20368;-87
2023/12/20 05:33:33;;;;;;;49.33;29.67;;;;;;;;;;6081337;29;20061;-85
2023/12/20 05:36:35;;;;;;;43.28;28.80;;;;;;;;;;6079295;29;20054;-88
2023/12/20 05:39:38;;;;;;;45.88;28.17;;;;;;;;;;6083966;29;20294;-88
2023/12/20 05:42:40;;;;;;;44.05;28.00;;;;;;;;;;6084067;29;20082;-87
2023/12/20 05:45:42;;;;;;;44.60;27.67;;;;;;;;;;6086036;29;20075;-87
2023/12/20 05:48:43;;;;;;;40.72;26.05;;;;;;;;;;6083809;29;20171;-87
2023/12/20 05:51:45;;;;;;;41.25;25.35;;;;;;;;;;6085234;29;20057;-87
2023/12/20 05:54:48;;;;;;;41.33;26.95;;;;;;;;;;6084771;29;20060;-87
2023/12/20 05:57:50;;;;;;;44.53;27.63;;;;;;;;;;6089123;29;20058;-86
2023/12/20 06:00:52;;;;;;;42.10;26.67;;;;;;;;;;6085358;29;20116;-86
2023/12/20 06:03:54;;;;;;;45.20;27.40;;;;;;;;;;6093633;29;20061;-87
2023/12/20 06:06:55;;;;;;;43.90;27.95;;;;;;;;;;6083467;29;20051;-86
2023/12/20 06:09:59;;;;;;;44.05;26.60;;;;;;;;;;6082584;29;20332;-86
2023/12/20 06:13:00;;;;;;;42.28;26.90;;;;;;;;;;6089371;29;20105;-87
2023/12/20 06:16:02;;;;;;;45.85;28.48;;;;;;;;;;6079912;29;20134;-88
2023/12/20 06:19:04;;;;;;;45.70;27.73;;;;;;;;;;6079731;29;20260;-88
2023/12/20 06:22:06;;;;;;;40.63;27.65;;;;;;;;;;6080245;29;20059;-88
2023/12/20 06:25:09;;;;;;;43.60;26.85;;;;;;;;;;6084289;29;20348;-88
2023/12/20 06:28:14;;;;;;;43.85;26.00;;;;;;;;;;6088572;29;20052;-80
2023/12/20 06:31:15;;;;;;;37.95;25.23;;;;;;;;;;6086545;29;20162;-80
2023/12/20 06:34:17;;;;;;;42.20;25.58;;;;;;;;;;6083666;29;20060;-80
2023/12/20 06:37:19;;;;;;;37.10;24.67;;;;;;;;;;6082287;29;20049;-79
2023/12/20 06:40:22;;;;;;;36.85;23.85;;;;;;;;;;6083255;29;20380;-77
2023/12/20 06:43:24;;;;;;;46.55;26.48;;;;;;;;;;6084249;29;20061;-80
2023/12/20 06:46:26;;;;;;;39.03;23.90;;;;;;;;;;6086483;29;20086;-79
2023/12/20 06:49:27;;;;;;;38.10;25.15;;;;;;;;;;6082910;29;20071;-80
2023/12/20 06:52:29;;;;;;;38.78;25.40;;;;;;;;;;6080591;29;20064;-79
2023/12/20 06:55:32;;;;;;;39.88;25.08;;;;;;;;;;6087452;29;20248;-79
2023/12/20 06:58:35;;;;;;;37.80;24.67;;;;;;;;;;6085512;29;20067;-79
2023/12/20 07:01:39;;;;;;;41.67;23.80;;;;;;;;;;6085993;29;20067;-79
2023/12/20 07:04:41;;;;;;;39.85;23.95;;;;;;;;;;6079947;29;20064;-78
2023/12/20 07:07:43;;;;;;;36.33;24.63;;;;;;;;;;6081974;29;20067;-79
2023/12/20 07:10:46;;;;;;;38.38;22.83;;;;;;;;;;6078313;29;20116;-80
2023/12/20 07:13:47;;;;;;;37.88;24.27;;;;;;;;;;6078261;29;20334;-78
2023/12/20 07:16:49;;;;;;;40.10;23.05;;;;;;;;;;6076690;29;20049;-79
2023/12/20 07:19:51;;;;;;;36.45;23.10;;;;;;;;;;6082729;29;20355;-80
2023/12/20 07:22:52;;;;;;;34.50;22.55;;;;;;;;;;6081067;29;20879;-80
2023/12/20 07:25:56;;;;;;;74.65;39.22;;;;;;;;;;6087680;29;20079;-78
2023/12/20 07:28:58;;;;;;;67.32;37.55;;;;;;;;;;6080994;29;20063;-80
2023/12/20 07:32:00;;;;;;;40.38;23.63;;;;;;;;;;6080546;29;20059;-80
2023/12/20 07:35:03;;;;;;;41.38;23.00;;;;;;;;;;6082111;29;20060;-78
2023/12/20 07:38:05;;;;;;;39.88;22.27;;;;;;;;;;6084451;29;20052;-87
2023/12/20 07:41:10;;;;;;;32.55;21.23;;;;;;;;;;6084885;29;20066;-89
2023/12/20 07:44:12;;;;;;;38.78;22.80;;;;;;;;;;6079498;29;20503;-87
2023/12/20 07:47:16;;;;;;;47.10;23.52;;;;;;;;;;6086555;29;20048;-87
2023/12/20 07:50:18;;;;;;;38.13;22.48;;;;;;;;;;6075969;29;20056;-89
2023/12/20 07:53:20;;;;;;;36.75;21.60;;;;;;;;;;6079289;29;20057;-86
2023/12/20 07:56:23;;;;;;;36.83;22.63;;;;;;;;;;6084089;29;20060;-86
2023/12/20 07:59:25;;;;;;;34.47;22.40;;;;;;;;;;6082767;29;20370;-87
2023/12/20 08:02:26;;;;;;;36.55;22.05;;;;;;;;;;6085083;29;20056;-86
2023/12/20 08:05:28;;;;;;;38.47;23.17;;;;;;;;;;6084720;29;20120;-88
2023/12/20 08:08:30;;;;;;;39.47;22.42;;;;;;;;;;6087686;29;20256;-86
2023/12/20 08:11:33;;;;;;;37.75;22.90;;;;;;;;;;6086611;29;20069;-87
2023/12/20 08:14:35;;;;;;;38.30;23.17;;;;;;;;;;6085077;29;20053;-88
2023/12/20 08:17:37;;;;;;;35.13;22.98;;;;;;;;;;6087244;29;20312;-90
2023/12/20 08:20:38;;;;;;;35.08;22.50;;;;;;;;;;6084977;29;20065;-88
2023/12/20 08:23:40;;;;;;;48.83;23.85;;;;;;;;;;6086548;29;20071;-88
2023/12/20 08:26:43;;;;;;;47.15;24.38;;;;;;;;;;6091660;29;20044;-88
2023/12/20 08:29:45;;;;;;;38.85;22.33;;;;;;;;;;6093980;29;20057;-87
2023/12/20 08:32:47;;;;;;;31.65;21.08;;;;;;;;;;6092024;29;20067;-86
2023/12/20 08:35:49;;;;;;;34.88;21.15;;;;;;;;;;6091759;29;20056;-87
2023/12/20 08:38:51;;;;;;;31.00;20.85;;;;;;;;;;6085643;29;20245;-87
2023/12/20 08:41:54;;;;;;;38.63;22.17;;;;;;;;;;6088107;29;20072;-87
2023/12/20 08:44:56;;;;;;;39.88;22.60;;;;;;;;;;6086902;29;20048;-87
2023/12/20 08:47:58;;;;;;;37.97;23.70;;;;;;;;;;6085038;29;20064;-87
2023/12/20 08:50:59;;;;;;;39.60;26.42;;;;;;;;;;6084040;29;20221;-87
2023/12/20 08:54:01;;;;;;;42.13;25.85;;;;;;;;;;6084405;29;20063;-86
2023/12/20 08:57:06;;;;;;;42.75;25.23;;;;;;;;;;6092020;29;20132;-86
2023/12/20 09:00:09;;;;;;;40.03;25.02;;;;;;;;;;6089344;29;20099;-88
2023/12/20 09:03:11;;;;;;;43.22;24.45;;;;;;;;;;6082303;29;20056;-87
2023/12/20 09:06:13;;;;;;;42.40;26.13;;;;;;;;;;6081617;29;20387;-86
2023/12/20 09:09:15;;;;;;;43.63;27.15;;;;;;;;;;6089055;29;20055;-86
2023/12/20 09:12:19;;;;;;;46.17;27.60;;;;;;;;;;6088311;29;20277;-87
2023/12/20 09:15:21;;;;;;;47.10;27.30;;;;;;;;;;6083533;29;20064;-86
2023/12/20 09:18:22;;;;;;;47.30;27.95;;;;;;;;;;6080408;29;20053;-86
2023/12/20 09:21:24;;;;;;;45.05;28.17;;;;;;;;;;6087377;29;20065;-86
2023/12/20 09:24:26;;;;;;;40.72;27.02;;;;;;;;;;6084105;29;20061;-87
2023/12/20 09:27:29;;;;;;;44.33;28.17;;;;;;;;;;6086471;29;20068;-87
2023/12/20 09:30:31;;;;;;;48.63;28.92;;;;;;;;;;6084031;29;20060;-89
2023/12/20 09:33:33;;;;;;;47.70;28.73;;;;;;;;;;6087305;29;20063;-86
2023/12/20 09:36:36;;;;;;;73.03;39.28;;;;;;;;;;6083400;29;20067;-86
2023/12/20 09:39:37;;;;;;;164.07;76.72;;;;;;;;;;6086339;29;20059;-86
2023/12/20 09:42:47;;;;;;;124.38;60.58;;;;;;;;;;6088368;29;20065;-87
2023/12/20 09:45:49;;;;;;;60.08;36.55;;;;;;;;;;6089507;29;20053;-85
2023/12/20 09:48:50;;;;;;;127.22;57.90;;;;;;;;;;6086795;29;20057;-85
2023/12/20 09:51:52;;;;;;;58.85;33.05;;;;;;;;;;6089752;29;20355;-85
2023/12/20 09:54:55;;;;;;;49.08;28.13;;;;;;;;;;6086346;29;20232;-86
2023/12/20 09:57:58;;;;;;;50.30;27.20;;;;;;;;;;6084323;29;20084;-79
2023/12/20 10:01:00;;;;;;;40.10;26.73;;;;;;;;;;6086692;29;20066;-80
2023/12/20 10:04:02;;;;;;;45.55;28.02;;;;;;;;;;6085867;29;20229;-80
2023/12/20 10:07:04;;;;;;;42.83;27.20;;;;;;;;;;6084424;29;20053;-77
2023/12/20 10:10:08;;;;;;;42.25;27.00;;;;;;;;;;6084042;29;20305;-79
2023/12/20 10:13:13;;;;;;;47.28;27.98;;;;;;;;;;6087435;29;20061;-79
2023/12/20 10:16:14;;;;;;;;;;;;;;;;;;6088456;29;20056;-79
2023/12/20 10:19:17;;;;;;;43.03;26.92;;;;;;;;;;6080654;29;19932;-80
2023/12/20 10:22:19;;;;;;;46.03;28.17;;;;;;;;;;6079558;29;20056;-79
2023/12/20 10:25:21;;;;;;;47.53;29.15;;;;;;;;;;6078955;29;20052;-80
2023/12/20 10:28:27;;;;;;;42.75;26.67;;;;;;;;;;6079833;29;20104;-80
2023/12/20 10:31:30;;;;;;;41.38;27.00;;;;;;;;;;6084304;29;20089;-80
2023/12/20 10:34:33;;;;;;;47.35;27.77;;;;;;;;;;6079121;29;20374;-80
2023/12/20 10:37:36;;;;;;;45.25;27.42;;;;;;;;;;6085850;29;20044;-80
2023/12/20 10:40:38;;;;;;;50.03;29.02;;;;;;;;;;6081185;29;20064;-79
2023/12/20 10:43:42;;;;;;;51.40;30.75;;;;;;;;;;6083827;29;20228;-79
2023/12/20 10:46:49;;;;;;;43.53;27.58;;;;;;;;;;6076491;29;20056;-80
2023/12/20 10:49:53;;;;;;;42.55;27.40;;;;;;;;;;6083819;29;20234;-78
2023/12/20 10:52:55;;;;;;;42.40;29.13;;;;;;;;;;6083186;29;20352;-78
2023/12/20 10:56:00;;;;;;;45.13;29.15;;;;;;;;;;6082916;29;20063;-80
2023/12/20 10:59:05;;;;;;;39.78;27.35;;;;;;;;;;6086984;29;20044;-80
2023/12/20 11:02:06;;;;;;;41.80;27.92;;;;;;;;;;6083334;29;20336;-80
2023/12/20 11:05:17;;;;;;;46.22;28.05;;;;;;;;;;6083289;29;20063;-80
2023/12/20 11:08:23;;;;;;;39.83;27.30;;;;;;;;;;6083898;29;20064;-86
2023/12/20 11:11:30;;;;;;;42.75;28.00;;;;;;;;;;6079509;29;20068;-87
2023/12/20 11:14:40;;;;;;;44.97;28.60;;;;;;;;;;6083367;29;20057;-86
2023/12/20 11:17:42;;;;;;;40.22;26.40;;;;;;;;;;6080991;29;20052;-87
2023/12/20 11:20:43;;;;;;;42.38;27.45;;;;;;;;;;6079180;29;20095;-87
2023/12/20 11:23:45;;;;;;;48.30;27.88;;;;;;;;;;6080334;29;20075;-86
2023/12/20 11:26:48;;;;;;;37.08;25.80;;;;;;;;;;6084207;29;20052;-88
2023/12/20 11:29:54;;;;;;;39.05;26.88;;;;;;;;;;6082920;29;20064;-86
2023/12/20 11:32:56;;;;;;;37.45;27.73;;;;;;;;;;6081033;29;20051;-87
2023/12/20 11:35:59;;;;;;;44.53;28.35;;;;;;;;;;6089921;29;20059;-87
2023/12/20 11:39:05;;;;;;;43.30;28.48;;;;;;;;;;6080296;29;20221;-88
2023/12/20 11:42:08;;;;;;;40.63;28.48;;;;;;;;;;6082619;29;20367;-86
2023/12/20 11:45:14;;;;;;;41.53;28.80;;;;;;;;;;6078941;29;20182;-87
2023/12/20 11:48:16;;;;;;;41.75;27.67;;;;;;;;;;6089364;29;20063;-87
2023/12/20 11:51:18;;;;;;;38.05;26.13;;;;;;;;;;6086503;29;20062;-86
2023/12/20 11:54:20;;;;;;;37.33;26.10;;;;;;;;;;6091393;29;20380;-86
2023/12/20 11:57:22;;;;;;;39.88;25.65;;;;;;;;;;6086529;29;20060;-86
2023/12/20 12:00:26;;;;;;;39.20;24.92;;;;;;;;;;6085228;29;20048;-87
2023/12/20 12:03:27;;;;;;;38.65;23.70;;;;;;;;;;6081444;29;20060;-84
2023/12/20 12:06:29;;;;;;;32.33;22.55;;;;;;;;;;6077621;29;20060;-85
2023/12/20 12:09:31;;;;;;;32.30;22.35;;;;;;;;;;6079972;29;20048;-86
2023/12/20 12:12:33;;;;;;;34.17;24.90;;;;;;;;;;6083788;29;20067;-88
2023/12/20 12:15:36;;;;;;;39.58;23.30;;;;;;;;;;6083104;29;20048;-87
2023/12/20 12:18:38;;;;;;;39.43;25.77;;;;;;;;;;6081145;29;20057;-87
2023/12/20 12:21:40;;;;;;;37.90;25.83;;;;;;;;;;6082976;29;20476;-87
2023/12/20 12:24:42;;;;;;;40.35;26.13;;;;;;;;;;6084356;29;20061;-86
2023/12/20 12:27:44;;;;;;;42.22;26.58;;;;;;;;;;6088654;29;20052;-86
2023/12/20 12:30:58;;;;;;;38.92;26.27;;;;;;;;;;6075689;29;20056;-86
2023/12/20 12:34:00;;;;;;;42.17;27.85;;;;;;;;;;6082545;29;20049;-85
2023/12/20 12:37:02;;;;;;;38.67;27.63;;;;;;;;;;6084362;29;20116;-85
2023/12/20 12:40:05;;;;;;;42.30;27.73;;;;;;;;;;6085786;29;20060;-85
2023/12/20 12:43:07;;;;;;;44.63;27.90;;;;;;;;;;6082284;29;20068;-85
2023/12/20 12:46:10;;;;;;;40.92;28.45;;;;;;;;;;6084596;29;20064;-86
2023/12/20 12:49:12;;;;;;;45.63;28.80;;;;;;;;;;6087827;29;20060;-84
2023/12/20 12:52:13;;;;;;;43.95;28.13;;;;;;;;;;6085658;29;20060;-85
2023/12/20 12:55:15;;;;;;;43.53;28.15;;;;;;;;;;6080857;29;20059;-85
2023/12/20 12:58:17;;;;;;;35.85;26.00;;;;;;;;;;6083560;29;20060;-86
2023/12/20 13:01:20;;;;;;;41.42;27.50;;;;;;;;;;6082835;29;20049;-86
2023/12/20 13:04:22;;;;;;;47.83;27.98;;;;;;;;;;6082561;29;20072;-85
2023/12/20 13:07:24;;;;;;;42.63;27.98;;;;;;;;;;6082861;29;20052;-86
2023/12/20 13:10:26;;;;;;;37.13;26.50;;;;;;;;;;6090495;29;20056;-86
2023/12/20 13:13:28;;;;;;;42.50;26.33;;;;;;;;;;6083202;29;20052;-86
2023/12/20 13:16:31;;;;;;;40.72;26.33;;;;;;;;;;6087307;29;20295;-86
2023/12/20 13:19:33;;;;;;;35.45;26.33;;;;;;;;;;6085137;29;20297;-86
2023/12/20 13:22:35;;;;;;;63.17;40.58;;;;;;;;;;6085105;29;20114;-88
2023/12/20 13:25:37;;;;;;;39.75;27.85;;;;;;;;;;6084150;29;20168;-86
2023/12/20 13:28:39;;;;;;;38.75;26.92;;;;;;;;;;6084650;29;20068;-87
2023/12/20 13:31:42;;;;;;;32.60;25.27;;;;;;;;;;6086543;29;20063;-86
2023/12/20 13:34:44;;;;;;;35.50;26.05;;;;;;;;;;6084575;29;20055;-87
2023/12/20 13:37:46;;;;;;;33.30;26.08;;;;;;;;;;6090333;29;20059;-86
2023/12/20 13:40:47;;;;;;;39.15;27.10;;;;;;;;;;6084269;29;20056;-85
2023/12/20 13:43:49;;;;;;;36.25;25.25;;;;;;;;;;6080393;29;20368;-85
2023/12/20 13:46:52;;;;;;;33.97;25.40;;;;;;;;;;6082241;29;20147;-87
2023/12/20 13:49:55;;;;;;;41.77;25.80;;;;;;;;;;6082368;29;20056;-85
2023/12/20 13:52:57;;;;;;;35.40;25.02;;;;;;;;;;6082558;29;20061;-87
2023/12/20 13:56:00;;;;;;;39.20;25.08;;;;;;;;;;6087123;29;20083;-87
2023/12/20 13:59:02;;;;;;;33.85;25.52;;;;;;;;;;6083453;29;20233;-86
2023/12/20 14:02:05;;;;;;;38.38;25.17;;;;;;;;;;6083049;29;20420;-85
2023/12/20 14:05:07;;;;;;;37.20;24.35;;;;;;;;;;6082656;29;20341;-87
2023/12/20 14:08:09;;;;;;;36.30;24.92;;;;;;;;;;6086597;29;20056;-86
2023/12/20 14:11:12;;;;;;;33.95;24.85;;;;;;;;;;6086229;29;20344;-86
2023/12/20 14:14:14;;;;;;;36.93;25.93;;;;;;;;;;6086452;29;21075;-86
2023/12/20 14:17:17;;;;;;;34.10;25.33;;;;;;;;;;6084059;29;20482;-86
2023/12/20 14:20:20;;;;;;;39.72;25.00;;;;;;;;;;6084911;29;20109;-86
2023/12/20 14:23:22;;;;;;;34.47;25.23;;;;;;;;;;6084087;29;20057;-87
2023/12/20 14:26:24;;;;;;;34.15;25.45;;;;;;;;;;6084250;29;20079;-86
2023/12/20 14:29:27;;;;;;;33.92;24.20;;;;;;;;;;6079353;29;20048;-87
2023/12/20 14:32:30;;;;;;;33.42;24.27;;;;;;;;;;6080143;29;20056;-86
2023/12/20 14:35:32;;;;;;;35.97;24.77;;;;;;;;;;6077439;29;20053;-88
2023/12/20 14:38:34;;;;;;;33.83;24.65;;;;;;;;;;6082451;29;20083;-86
2023/12/20 14:41:36;;;;;;;40.83;25.38;;;;;;;;;;6082398;29;20185;-86
2023/12/20 14:44:38;;;;;;;40.28;26.00;;;;;;;;;;6084417;29;20237;-86
2023/12/20 14:47:41;;;;;;;37.17;26.33;;;;;;;;;;6087499;29;20107;-87
2023/12/20 14:50:43;;;;;;;35.47;24.80;;;;;;;;;;6085767;29;20057;-88
2023/12/20 14:53:47;;;;;;;38.78;26.70;;;;;;;;;;6085223;29;20052;-86
2023/12/20 14:56:48;;;;;;;38.57;26.23;;;;;;;;;;6080251;29;20071;-85
2023/12/20 14:59:50;;;;;;;37.05;25.45;;;;;;;;;;6090978;29;20395;-85
2023/12/20 15:02:54;;;;;;;36.47;25.48;;;;;;;;;;6081180;29;20056;-86
2023/12/20 15:05:58;;;;;;;35.35;26.48;;;;;;;;;;6084280;29;20059;-85
2023/12/20 15:09:00;;;;;;;37.85;25.15;;;;;;;;;;6080525;29;20056;-87
2023/12/20 15:12:02;;;;;;;36.78;26.75;;;;;;;;;;6081541;29;20048;-86
2023/12/20 15:15:05;;;;;;;35.88;24.92;;;;;;;;;;6080309;29;20052;-86
2023/12/20 15:18:08;;;;;;;38.80;25.00;;;;;;;;;;6080130;29;20380;-86
2023/12/20 15:21:10;;;;;;;36.33;25.60;;;;;;;;;;6080818;29;20421;-86
2023/12/20 15:24:15;;;;;;;37.88;26.45;;;;;;;;;;6076027;29;20063;-84
2023/12/20 15:27:16;;;;;;;37.65;25.55;;;;;;;;;;6083984;29;20344;-87
2023/12/20 15:30:18;;;;;;;36.67;24.75;;;;;;;;;;6083915;29;20064;-87
2023/12/20 15:33:22;;;;;;;40.13;25.30;;;;;;;;;;6080233;29;20059;-86
2023/12/20 15:36:23;;;;;;;43.23;26.67;;;;;;;;;;6084915;29;20056;-86
2023/12/20 15:39:25;;;;;;;40.58;25.45;;;;;;;;;;6081487;29;20057;-86
2023/12/20 15:42:27;;;;;;;36.05;26.20;;;;;;;;;;6079288;29;20052;-86
2023/12/20 15:45:28;;;;;;;40.92;26.00;;;;;;;;;;6086917;29;20049;-86
2023/12/20 15:48:31;;;;;;;37.35;25.80;;;;;;;;;;6086431;29;20048;-86
2023/12/20 15:51:34;;;;;;;37.15;25.20;;;;;;;;;;6084677;29;20183;-88
2023/12/20 15:54:38;;;;;;;36.72;25.90;;;;;;;;;;6082556;29;20071;-87
2023/12/20 15:57:41;;;;;;;37.60;26.60;;;;;;;;;;6092603;29;20084;-86
2023/12/20 16:00:43;;;;;;;38.65;26.50;;;;;;;;;;6084539;29;20198;-86
2023/12/20 16:03:46;;;;;;;38.47;25.17;;;;;;;;;;6084067;29;20399;-86
2023/12/20 16:06:48;;;;;;;43.17;27.10;;;;;;;;;;6082963;29;20505;-86
2023/12/20 16:09:49;;;;;;;38.35;26.65;;;;;;;;;;6078739;29;20048;-85
2023/12/20 16:12:51;;;;;;;40.20;27.98;;;;;;;;;;6079199;29;20056;-85
2023/12/20 16:15:54;;;;;;;39.17;26.95;;;;;;;;;;6080860;29;20370;-86
2023/12/20 16:18:57;;;;;;;39.17;26.40;;;;;;;;;;6082319;29;20281;-84
2023/12/20 16:21:58;;;;;;;42.10;27.35;;;;;;;;;;6085125;29;20209;-86
2023/12/20 16:25:00;;;;;;;42.97;26.92;;;;;;;;;;6089427;29;20060;-85
2023/12/20 16:28:02;;;;;;;39.92;27.63;;;;;;;;;;6087855;29;20052;-86
2023/12/20 16:31:04;;;;;;;39.97;26.60;;;;;;;;;;6089544;29;20051;-86
2023/12/20 16:34:07;;;;;;;43.58;28.13;;;;;;;;;;6088580;29;20048;-86
2023/12/20 16:37:09;;;;;;;48.97;29.88;;;;;;;;;;6083953;29;20127;-86
2023/12/20 16:40:11;;;;;;;45.63;27.88;;;;;;;;;;6086118;29;20048;-84
2023/12/20 16:43:13;;;;;;;44.90;27.55;;;;;;;;;;6084590;29;20123;-87
2023/12/20 16:46:15;;;;;;;38.13;27.02;;;;;;;;;;6087702;29;20430;-88
2023/12/20 16:49:18;;;;;;;41.63;28.13;;;;;;;;;;6085027;29;20064;-86
2023/12/20 16:52:19;;;;;;;46.00;28.33;;;;;;;;;;6086471;29;20056;-85
2023/12/20 16:55:21;;;;;;;41.30;27.73;;;;;;;;;;6093294;29;20067;-85
2023/12/20 16:58:23;;;;;;;46.28;27.98;;;;;;;;;;6082497;29;20131;-86
2023/12/20 17:01:26;;;;;;;42.67;27.13;;;;;;;;;;6081298;29;20071;-85
2023/12/20 17:04:32;;;;;;;38.55;28.10;;;;;;;;;;6086326;29;20116;-85
2023/12/20 17:07:34;;;;;;;37.45;26.38;;;;;;;;;;6085431;28;20055;-86
2023/12/20 17:10:35;;;;;;;43.63;29.48;;;;;;;;;;6085336;29;20078;-86
2023/12/20 17:13:37;;;;;;;44.95;29.40;;;;;;;;;;6084940;29;20048;-86
2023/12/20 17:16:39;;;;;;;39.53;27.58;;;;;;;;;;6085397;29;20048;-85
2023/12/20 17:19:43;;;;;;;42.10;27.85;;;;;;;;;;6087221;29;20052;-86
2023/12/20 17:22:44;;;;;;;;;;;;;;;;;;6086364;29;20048;-87
2023/12/20 17:25:46;;;;;;;42.17;26.85;;;;;;;;;;6089314;29;19928;-86
2023/12/20 17:28:48;;;;;;;44.50;26.90;;;;;;;;;;6087067;29;20128;-86
2023/12/20 17:31:50;;;;;;;42.63;28.05;;;;;;;;;;6089034;29;20320;-86
2023/12/20 17:34:53;;;;;;;37.58;27.02;;;;;;;;;;6085833;29;20052;-86
2023/12/20 17:37:54;;;;;;;45.80;28.90;;;;;;;;;;6086016;29;20293;-86
2023/12/20 17:40:56;;;;;;;44.83;29.00;;;;;;;;;;6087486;29;20057;-86
2023/12/20 17:43:58;;;;;;;50.38;29.23;;;;;;;;;;6082191;29;20256;-86